sensor_id;sensor_type;location;lat;lon;timestamp;pressure;altitude;pressure_sealevel;temperature;humidity
64521;BME280;50896;46.714;17.322;2022-10-24T00:01:11;100656.78;;;12.07;100.00
64521;BME280;50896;46.714;17.322;2022-10-24T00:03:38;100659.16;;;12.02;100.00
64521;BME280;50896;46.714;17.322;2022-10-24T00:06:07;100659.47;;;12.07;100.00
64521;BME280;50896;46.714;17.322;2022-10-24T00:08:36;100655.63;;;12.01;100.00
64521;BME280;50896;46.714;17.322;2022-10-24T00:11:12;100656.66;;;12.00;100.00
64521;BME280;50896;46.714;17.322;2022-10-24T00:13:39;100658.13;;;12.03;100.00
64521;BME280;50896;46.714;17.322;2022-10-24T00:16:06;100662.47;;;12.04;100.00
64521;BME280;50896;46.714;17.322;2022-10-24T00:18:33;100657.97;;;11.96;100.00
64521;BME280;50896;46.714;17.322;2022-10-24T00:21:00;100661.66;;;12.03;100.00
64521;BME280;50896;46.714;17.322;2022-10-24T00:23:27;100650.81;;;11.96;100.00
64521;BME280;50896;46.714;17.322;2022-10-24T00:25:54;100654.13;;;11.90;100.00
64521;BME280;50896;46.714;17.322;2022-10-24T00:28:20;100649.94;;;11.88;100.00
64521;BME280;50896;46.714;17.322;2022-10-24T00:30:51;100654.78;;;11.92;100.00
64521;BME280;50896;46.714;17.322;2022-10-24T00:33:18;100659.09;;;11.93;100.00
64521;BME280;50896;46.714;17.322;2022-10-24T00:35:45;100658.63;;;11.98;100.00
64521;BME280;50896;46.714;17.322;2022-10-24T00:38:12;100651.63;;;12.05;100.00
64521;BME280;50896;46.714;17.322;2022-10-24T00:40:39;100649.47;;;12.09;100.00
64521;BME280;50896;46.714;17.322;2022-10-24T00:43:23;100643.16;;;12.10;100.00
64521;BME280;50896;46.714;17.322;2022-10-24T00:45:55;100650.31;;;12.09;100.00
64521;BME280;50896;46.714;17.322;2022-10-24T00:48:27;100646.47;;;12.12;100.00
64521;BME280;50896;46.714;17.322;2022-10-24T00:53:36;100645.50;;;12.21;100.00
64521;BME280;50896;46.714;17.322;2022-10-24T00:56:04;100638.50;;;12.20;100.00
64521;BME280;50896;46.714;17.322;2022-10-24T00:58:34;100636.81;;;12.19;100.00
64521;BME280;50896;46.714;17.322;2022-10-24T01:01:02;100638.81;;;12.17;100.00
64521;BME280;50896;46.714;17.322;2022-10-24T01:03:30;100646.66;;;12.19;100.00
64521;BME280;50896;46.714;17.322;2022-10-24T01:06:22;100651.47;;;12.23;100.00
64521;BME280;50896;46.714;17.322;2022-10-24T01:09:11;100646.31;;;12.22;100.00
64521;BME280;50896;46.714;17.322;2022-10-24T01:14:27;100637.50;;;12.21;100.00
64521;BME280;50896;46.714;17.322;2022-10-24T01:22:19;100624.81;;;12.23;100.00
64521;BME280;50896;46.714;17.322;2022-10-24T01:25:13;100622.31;;;12.22;100.00
64521;BME280;50896;46.714;17.322;2022-10-24T01:30:50;100615.50;;;12.19;100.00
64521;BME280;50896;46.714;17.322;2022-10-24T01:33:26;100620.34;;;12.16;100.00
64521;BME280;50896;46.714;17.322;2022-10-24T01:36:09;100615.50;;;12.11;100.00
64521;BME280;50896;46.714;17.322;2022-10-24T01:38:43;100613.84;;;12.02;100.00
64521;BME280;50896;46.714;17.322;2022-10-24T01:41:20;100612.13;;;11.92;100.00
64521;BME280;50896;46.714;17.322;2022-10-24T01:44:12;100602.81;;;11.88;100.00
64521;BME280;50896;46.714;17.322;2022-10-24T01:46:47;100597.00;;;11.85;100.00
64521;BME280;50896;46.714;17.322;2022-10-24T01:49:19;100594.81;;;11.80;100.00
64521;BME280;50896;46.714;17.322;2022-10-24T01:51:50;100592.16;;;11.80;100.00
64521;BME280;50896;46.714;17.322;2022-10-24T01:54:19;100586.81;;;11.80;100.00
64521;BME280;50896;46.714;17.322;2022-10-24T01:56:46;100589.50;;;11.80;100.00
64521;BME280;50896;46.714;17.322;2022-10-24T02:05:16;100589.47;;;11.72;100.00
64521;BME280;50896;46.714;17.322;2022-10-24T02:07:47;100584.16;;;11.72;100.00
64521;BME280;50896;46.714;17.322;2022-10-24T02:10:21;100582.19;;;11.74;100.00
64521;BME280;50896;46.714;17.322;2022-10-24T02:12:53;100578.66;;;11.73;100.00
64521;BME280;50896;46.714;17.322;2022-10-24T02:15:25;100578.81;;;11.72;100.00
64521;BME280;50896;46.714;17.322;2022-10-24T02:17:53;100579.81;;;11.79;100.00
64521;BME280;50896;46.714;17.322;2022-10-24T02:20:28;100576.69;;;11.75;100.00
64521;BME280;50896;46.714;17.322;2022-10-24T02:25:43;100576.34;;;11.70;100.00
64521;BME280;50896;46.714;17.322;2022-10-24T02:28:16;100568.50;;;11.69;100.00
64521;BME280;50896;46.714;17.322;2022-10-24T02:31:17;100578.34;;;11.68;100.00
64521;BME280;50896;46.714;17.322;2022-10-24T02:33:49;100574.19;;;11.74;100.00
64521;BME280;50896;46.714;17.322;2022-10-24T02:36:19;100578.81;;;11.72;100.00
64521;BME280;50896;46.714;17.322;2022-10-24T02:38:49;100574.84;;;11.68;100.00
64521;BME280;50896;46.714;17.322;2022-10-24T02:41:21;100570.34;;;11.60;100.00
64521;BME280;50896;46.714;17.322;2022-10-24T02:43:50;100573.00;;;11.52;100.00
64521;BME280;50896;46.714;17.322;2022-10-24T02:46:19;100571.50;;;11.49;100.00
64521;BME280;50896;46.714;17.322;2022-10-24T02:48:50;100575.81;;;11.50;100.00
64521;BME280;50896;46.714;17.322;2022-10-24T02:51:20;100582.50;;;11.54;100.00
64521;BME280;50896;46.714;17.322;2022-10-24T02:53:49;100574.50;;;11.54;100.00
64521;BME280;50896;46.714;17.322;2022-10-24T02:56:16;100583.97;;;11.49;100.00
64521;BME280;50896;46.714;17.322;2022-10-24T02:58:43;100578.81;;;11.55;100.00
64521;BME280;50896;46.714;17.322;2022-10-24T03:01:10;100577.16;;;11.54;100.00
64521;BME280;50896;46.714;17.322;2022-10-24T03:03:37;100575.16;;;11.56;100.00
64521;BME280;50896;46.714;17.322;2022-10-24T03:06:04;100572.66;;;11.55;100.00
64521;BME280;50896;46.714;17.322;2022-10-24T03:08:30;100568.69;;;11.59;100.00
64521;BME280;50896;46.714;17.322;2022-10-24T03:10:57;100579.50;;;11.57;100.00
64521;BME280;50896;46.714;17.322;2022-10-24T03:13:24;100567.84;;;11.58;100.00
64521;BME280;50896;46.714;17.322;2022-10-24T03:15:51;100565.66;;;11.62;100.00
64521;BME280;50896;46.714;17.322;2022-10-24T03:18:17;100572.03;;;11.61;100.00
64521;BME280;50896;46.714;17.322;2022-10-24T03:20:44;100563.19;;;11.60;100.00
64521;BME280;50896;46.714;17.322;2022-10-24T03:23:12;100567.69;;;11.60;100.00
64521;BME280;50896;46.714;17.322;2022-10-24T03:25:38;100570.69;;;11.57;100.00
64521;BME280;50896;46.714;17.322;2022-10-24T03:28:05;100573.19;;;11.58;100.00
64521;BME280;50896;46.714;17.322;2022-10-24T03:30:32;100572.34;;;11.66;100.00
64521;BME280;50896;46.714;17.322;2022-10-24T03:32:59;100569.84;;;11.65;100.00
64521;BME280;50896;46.714;17.322;2022-10-24T03:35:26;100575.84;;;11.67;100.00
64521;BME280;50896;46.714;17.322;2022-10-24T03:37:52;100574.19;;;11.66;100.00
64521;BME280;50896;46.714;17.322;2022-10-24T03:40:19;100569.34;;;11.61;100.00
64521;BME280;50896;46.714;17.322;2022-10-24T03:42:46;100582.16;;;11.57;100.00
64521;BME280;50896;46.714;17.322;2022-10-24T03:45:13;100580.66;;;11.63;100.00
64521;BME280;50896;46.714;17.322;2022-10-24T03:47:41;100582.97;;;11.58;100.00
64521;BME280;50896;46.714;17.322;2022-10-24T03:50:08;100587.66;;;11.56;100.00
64521;BME280;50896;46.714;17.322;2022-10-24T03:52:34;100593.16;;;11.54;100.00
64521;BME280;50896;46.714;17.322;2022-10-24T03:55:02;100587.81;;;11.54;100.00
64521;BME280;50896;46.714;17.322;2022-10-24T03:57:28;100585.50;;;11.51;100.00
64521;BME280;50896;46.714;17.322;2022-10-24T03:59:55;100586.47;;;11.50;100.00
64521;BME280;50896;46.714;17.322;2022-10-24T04:02:22;100589.13;;;11.50;100.00
64521;BME280;50896;46.714;17.322;2022-10-24T04:04:49;100585.97;;;11.46;100.00
64521;BME280;50896;46.714;17.322;2022-10-24T04:07:16;100580.81;;;11.45;100.00
64521;BME280;50896;46.714;17.322;2022-10-24T04:09:42;100576.31;;;11.37;100.00
64521;BME280;50896;46.714;17.322;2022-10-24T04:12:09;100582.97;;;11.50;100.00
64521;BME280;50896;46.714;17.322;2022-10-24T04:14:36;100584.28;;;11.45;100.00
64521;BME280;50896;46.714;17.322;2022-10-24T04:17:03;100582.28;;;11.39;100.00
64521;BME280;50896;46.714;17.322;2022-10-24T04:19:30;100594.44;;;11.34;100.00
64521;BME280;50896;46.714;17.322;2022-10-24T04:21:56;100592.44;;;11.27;100.00
64521;BME280;50896;46.714;17.322;2022-10-24T04:24:23;100597.75;;;11.36;100.00
64521;BME280;50896;46.714;17.322;2022-10-24T04:26:50;100600.13;;;11.47;100.00
64521;BME280;50896;46.714;17.322;2022-10-24T04:29:17;100599.59;;;11.43;100.00
64521;BME280;50896;46.714;17.322;2022-10-24T04:31:44;100608.75;;;11.41;100.00
64521;BME280;50896;46.714;17.322;2022-10-24T04:34:10;100622.56;;;11.44;100.00
64521;BME280;50896;46.714;17.322;2022-10-24T04:36:37;100620.41;;;11.48;100.00
64521;BME280;50896;46.714;17.322;2022-10-24T04:39:04;100622.06;;;11.49;100.00
64521;BME280;50896;46.714;17.322;2022-10-24T04:41:31;100633.22;;;11.44;100.00
64521;BME280;50896;46.714;17.322;2022-10-24T04:43:57;100625.91;;;11.46;100.00
64521;BME280;50896;46.714;17.322;2022-10-24T04:46:24;100615.56;;;11.43;100.00
64521;BME280;50896;46.714;17.322;2022-10-24T04:48:51;100622.91;;;11.50;100.00
64521;BME280;50896;46.714;17.322;2022-10-24T04:51:19;100617.09;;;11.46;100.00
64521;BME280;50896;46.714;17.322;2022-10-24T04:53:48;100620.38;;;11.40;100.00
64521;BME280;50896;46.714;17.322;2022-10-24T04:56:17;100620.72;;;11.37;100.00
64521;BME280;50896;46.714;17.322;2022-10-24T04:58:43;100612.72;;;11.37;100.00
64521;BME280;50896;46.714;17.322;2022-10-24T05:01:10;100624.69;;;11.33;100.00
64521;BME280;50896;46.714;17.322;2022-10-24T05:03:37;100620.72;;;11.37;100.00
64521;BME280;50896;46.714;17.322;2022-10-24T05:06:04;100623.19;;;11.30;100.00
64521;BME280;50896;46.714;17.322;2022-10-24T05:08:31;100606.06;;;11.33;100.00
64521;BME280;50896;46.714;17.322;2022-10-24T05:10:57;100618.75;;;11.39;100.00
64521;BME280;50896;46.714;17.322;2022-10-24T05:13:24;100632.16;;;11.21;100.00
64521;BME280;50896;46.714;17.322;2022-10-24T05:15:51;100625.50;;;11.17;100.00
64521;BME280;50896;46.714;17.322;2022-10-24T05:18:18;100638.78;;;11.17;100.00
64521;BME280;50896;46.714;17.322;2022-10-24T05:20:45;100631.13;;;11.22;100.00
64521;BME280;50896;46.714;17.322;2022-10-24T05:23:12;100638.66;;;11.26;100.00
64521;BME280;50896;46.714;17.322;2022-10-24T05:25:38;100628.38;;;11.32;100.00
64521;BME280;50896;46.714;17.322;2022-10-24T05:28:05;100623.53;;;11.35;100.00
64521;BME280;50896;46.714;17.322;2022-10-24T05:30:32;100623.19;;;11.30;100.00
64521;BME280;50896;46.714;17.322;2022-10-24T05:32:58;100624.03;;;11.31;100.00
64521;BME280;50896;46.714;17.322;2022-10-24T05:35:25;100633.56;;;11.41;100.00
64521;BME280;50896;46.714;17.322;2022-10-24T05:37:52;100643.69;;;11.38;100.00
64521;BME280;50896;46.714;17.322;2022-10-24T05:40:19;100633.38;;;11.35;100.00
64521;BME280;50896;46.714;17.322;2022-10-24T05:42:45;100651.47;;;11.31;100.00
64521;BME280;50896;46.714;17.322;2022-10-24T05:45:12;100655.00;;;11.32;100.00
64521;BME280;50896;46.714;17.322;2022-10-24T05:47:39;100669.78;;;11.34;100.00
64521;BME280;50896;46.714;17.322;2022-10-24T05:50:07;100664.78;;;11.31;100.00
64521;BME280;50896;46.714;17.322;2022-10-24T05:52:33;100674.59;;;11.31;100.00
64521;BME280;50896;46.714;17.322;2022-10-24T05:55:05;100690.44;;;11.40;100.00
64521;BME280;50896;46.714;17.322;2022-10-24T05:57:35;100690.66;;;11.47;100.00
64521;BME280;50896;46.714;17.322;2022-10-24T06:00:05;100689.81;;;11.55;100.00
64521;BME280;50896;46.714;17.322;2022-10-24T06:02:37;100694.38;;;11.71;100.00
64521;BME280;50896;46.714;17.322;2022-10-24T06:05:05;100700.38;;;11.81;100.00
64521;BME280;50896;46.714;17.322;2022-10-24T06:07:32;100691.41;;;11.90;100.00
64521;BME280;50896;46.714;17.322;2022-10-24T06:09:58;100695.94;;;11.98;100.00
64521;BME280;50896;46.714;17.322;2022-10-24T06:12:26;100689.28;;;12.10;100.00
64521;BME280;50896;46.714;17.322;2022-10-24T06:14:57;100687.16;;;12.14;100.00
64521;BME280;50896;46.714;17.322;2022-10-24T06:17:24;100690.97;;;12.28;100.00
64521;BME280;50896;46.714;17.322;2022-10-24T06:19:51;100686.13;;;12.23;100.00
64521;BME280;50896;46.714;17.322;2022-10-24T06:22:18;100690.47;;;12.24;100.00
64521;BME280;50896;46.714;17.322;2022-10-24T06:24:45;100691.78;;;12.20;100.00
64521;BME280;50896;46.714;17.322;2022-10-24T06:27:12;100707.44;;;12.31;100.00
64521;BME280;50896;46.714;17.322;2022-10-24T06:29:38;100707.97;;;12.27;100.00
64521;BME280;50896;46.714;17.322;2022-10-24T06:32:05;100717.94;;;12.25;100.00
64521;BME280;50896;46.714;17.322;2022-10-24T06:34:32;100716.63;;;12.29;100.00
64521;BME280;50896;46.714;17.322;2022-10-24T06:36:59;100722.63;;;12.31;100.00
64521;BME280;50896;46.714;17.322;2022-10-24T06:39:26;100723.44;;;12.31;100.00
64521;BME280;50896;46.714;17.322;2022-10-24T06:41:53;100727.97;;;12.31;100.00
64521;BME280;50896;46.714;17.322;2022-10-24T06:44:19;100742.63;;;12.35;100.00
64521;BME280;50896;46.714;17.322;2022-10-24T06:46:46;100742.13;;;12.40;100.00
64521;BME280;50896;46.714;17.322;2022-10-24T06:49:13;100752.13;;;12.54;100.00
64521;BME280;50896;46.714;17.322;2022-10-24T06:51:40;100748.09;;;12.58;100.00
64521;BME280;50896;46.714;17.322;2022-10-24T06:54:07;100750.94;;;12.65;100.00
64521;BME280;50896;46.714;17.322;2022-10-24T06:56:34;100745.59;;;12.73;100.00
64521;BME280;50896;46.714;17.322;2022-10-24T06:59:01;100752.78;;;12.81;100.00
64521;BME280;50896;46.714;17.322;2022-10-24T07:01:27;100748.78;;;12.85;100.00
64521;BME280;50896;46.714;17.322;2022-10-24T07:03:54;100755.91;;;12.93;100.00
64521;BME280;50896;46.714;17.322;2022-10-24T07:06:24;100761.59;;;12.98;100.00
64521;BME280;50896;46.714;17.322;2022-10-24T07:08:52;100761.91;;;13.03;100.00
64521;BME280;50896;46.714;17.322;2022-10-24T07:11:19;100755.91;;;13.09;100.00
64521;BME280;50896;46.714;17.322;2022-10-24T07:13:46;100774.91;;;13.14;100.00
64521;BME280;50896;46.714;17.322;2022-10-24T07:16:14;100773.69;;;13.25;100.00
64521;BME280;50896;46.714;17.322;2022-10-24T07:18:41;100775.53;;;13.41;100.00
64521;BME280;50896;46.714;17.322;2022-10-24T07:21:13;100776.97;;;13.52;100.00
64521;BME280;50896;46.714;17.322;2022-10-24T07:23:40;100786.16;;;13.58;100.00
64521;BME280;50896;46.714;17.322;2022-10-24T07:26:10;100781.28;;;13.61;100.00
64521;BME280;50896;46.714;17.322;2022-10-24T07:28:38;100779.75;;;13.67;100.00
64521;BME280;50896;46.714;17.322;2022-10-24T07:31:05;100772.88;;;13.73;100.00
64521;BME280;50896;46.714;17.322;2022-10-24T07:33:35;100778.72;;;13.76;100.00
64521;BME280;50896;46.714;17.322;2022-10-24T07:36:02;100789.03;;;13.88;100.00
64521;BME280;50896;46.714;17.322;2022-10-24T07:38:29;100782.81;;;13.95;100.00
64521;BME280;50896;46.714;17.322;2022-10-24T07:40:56;100784.59;;;14.03;100.00
64521;BME280;50896;46.714;17.322;2022-10-24T07:43:22;100789.53;;;14.14;100.00
64521;BME280;50896;46.714;17.322;2022-10-24T07:45:49;100791.34;;;14.22;100.00
64521;BME280;50896;46.714;17.322;2022-10-24T07:48:18;100804.13;;;14.35;100.00
64521;BME280;50896;46.714;17.322;2022-10-24T07:50:45;100800.22;;;14.46;100.00
64521;BME280;50896;46.714;17.322;2022-10-24T07:53:13;100798.47;;;14.53;100.00
64521;BME280;50896;46.714;17.322;2022-10-24T07:55:41;100800.44;;;14.59;100.00
64521;BME280;50896;46.714;17.322;2022-10-24T07:58:09;100797.28;;;14.64;100.00
64521;BME280;50896;46.714;17.322;2022-10-24T08:00:36;100806.41;;;14.69;100.00
64521;BME280;50896;46.714;17.322;2022-10-24T08:03:10;100807.19;;;14.78;100.00
64521;BME280;50896;46.714;17.322;2022-10-24T08:05:39;100803.94;;;14.83;100.00
64521;BME280;50896;46.714;17.322;2022-10-24T08:08:05;100807.47;;;14.83;100.00
64521;BME280;50896;46.714;17.322;2022-10-24T08:10:52;100798.22;;;14.86;100.00
64521;BME280;50896;46.714;17.322;2022-10-24T08:13:19;100808.22;;;14.92;100.00
64521;BME280;50896;46.714;17.322;2022-10-24T08:15:46;100789.94;;;14.96;100.00
64521;BME280;50896;46.714;17.322;2022-10-24T08:18:12;100796.16;;;14.96;100.00
64521;BME280;50896;46.714;17.322;2022-10-24T08:20:39;100783.31;;;15.07;100.00
64521;BME280;50896;46.714;17.322;2022-10-24T08:23:06;100781.56;;;15.14;100.00
64521;BME280;50896;46.714;17.322;2022-10-24T08:25:33;100774.19;;;15.16;100.00
64521;BME280;50896;46.714;17.322;2022-10-24T08:28:00;100773.81;;;15.19;100.00
64521;BME280;50896;46.714;17.322;2022-10-24T08:30:32;100774.28;;;15.23;100.00
64521;BME280;50896;46.714;17.322;2022-10-24T08:32:58;100758.03;;;15.24;100.00
64521;BME280;50896;46.714;17.322;2022-10-24T08:35:25;100760.81;;;15.31;100.00
64521;BME280;50896;46.714;17.322;2022-10-24T08:37:52;100761.91;;;15.36;100.00
64521;BME280;50896;46.714;17.322;2022-10-24T08:40:19;100755.91;;;15.34;100.00
64521;BME280;50896;46.714;17.322;2022-10-24T08:42:47;100760.34;;;15.42;100.00
64521;BME280;50896;46.714;17.322;2022-10-24T08:45:25;100759.97;;;15.45;100.00
64521;BME280;50896;46.714;17.322;2022-10-24T08:47:59;100749.16;;;15.53;100.00
64521;BME280;50896;46.714;17.322;2022-10-24T08:50:31;100756.06;;;15.63;100.00
64521;BME280;50896;46.714;17.322;2022-10-24T08:53:05;100773.63;;;15.65;100.00
64521;BME280;50896;46.714;17.322;2022-10-24T08:55:48;100776.75;;;15.69;100.00
64521;BME280;50896;46.714;17.322;2022-10-24T08:58:33;100782.50;;;15.81;100.00
64521;BME280;50896;46.714;17.322;2022-10-24T09:01:05;100784.50;;;15.79;100.00
64521;BME280;50896;46.714;17.322;2022-10-24T09:03:39;100779.53;;;15.76;100.00
64521;BME280;50896;46.714;17.322;2022-10-24T09:06:29;100779.16;;;15.79;100.00
64521;BME280;50896;46.714;17.322;2022-10-24T09:08:59;100778.59;;;15.83;100.00
64521;BME280;50896;46.714;17.322;2022-10-24T09:14:13;100775.63;;;15.93;100.00
64521;BME280;50896;46.714;17.322;2022-10-24T09:16:42;100774.88;;;15.99;100.00
64521;BME280;50896;46.714;17.322;2022-10-24T09:19:17;100771.91;;;16.09;100.00
64521;BME280;50896;46.714;17.322;2022-10-24T09:21:46;100760.66;;;16.20;100.00
64521;BME280;50896;46.714;17.322;2022-10-24T09:24:41;100766.53;;;16.31;100.00
64521;BME280;50896;46.714;17.322;2022-10-24T09:27:21;100768.00;;;16.33;100.00
64521;BME280;50896;46.714;17.322;2022-10-24T09:29:48;100774.06;;;16.42;100.00
64521;BME280;50896;46.714;17.322;2022-10-24T09:32:22;100766.88;;;16.43;100.00
64521;BME280;50896;46.714;17.322;2022-10-24T09:34:53;100768.78;;;16.49;100.00
64521;BME280;50896;46.714;17.322;2022-10-24T09:37:41;100776.19;;;16.47;100.00
64521;BME280;50896;46.714;17.322;2022-10-24T09:43:12;100780.06;;;16.66;100.00
64521;BME280;50896;46.714;17.322;2022-10-24T09:46:11;100776.84;;;16.77;100.00
64521;BME280;50896;46.714;17.322;2022-10-24T09:51:06;100770.47;;;16.78;100.00
64521;BME280;50896;46.714;17.322;2022-10-24T09:53:35;100770.13;;;16.88;100.00
64521;BME280;50896;46.714;17.322;2022-10-24T09:56:09;100764.19;;;16.92;100.00
64521;BME280;50896;46.714;17.322;2022-10-24T09:58:37;100777.31;;;17.02;100.00
64521;BME280;50896;46.714;17.322;2022-10-24T10:01:19;100775.63;;;17.01;100.00
64521;BME280;50896;46.714;17.322;2022-10-24T10:04:03;100783.19;;;16.91;100.00
64521;BME280;50896;46.714;17.322;2022-10-24T10:06:42;100779.88;;;16.89;100.00
64521;BME280;50896;46.714;17.322;2022-10-24T10:09:18;100787.78;;;16.75;100.00
64521;BME280;50896;46.714;17.322;2022-10-24T10:11:54;100791.34;;;16.83;100.00
64521;BME280;50896;46.714;17.322;2022-10-24T10:14:28;100783.75;;;16.86;100.00
64521;BME280;50896;46.714;17.322;2022-10-24T10:17:00;100793.78;;;16.99;100.00
64521;BME280;50896;46.714;17.322;2022-10-24T10:19:31;100787.69;;;17.12;100.00
64521;BME280;50896;46.714;17.322;2022-10-24T10:22:12;100785.03;;;17.19;100.00
64521;BME280;50896;46.714;17.322;2022-10-24T10:24:46;100773.47;;;17.18;100.00
64521;BME280;50896;46.714;17.322;2022-10-24T10:27:38;100777.81;;;17.19;100.00
64521;BME280;50896;46.714;17.322;2022-10-24T10:35:57;100770.34;;;17.56;100.00
64521;BME280;50896;46.714;17.322;2022-10-24T10:47:11;100770.16;;;17.51;100.00
64521;BME280;50896;46.714;17.322;2022-10-24T10:49:41;100767.91;;;17.62;100.00
64521;BME280;50896;46.714;17.322;2022-10-24T10:52:24;100760.94;;;17.74;100.00
64521;BME280;50896;46.714;17.322;2022-10-24T10:57:37;100764.03;;;17.77;100.00
64521;BME280;50896;46.714;17.322;2022-10-24T11:02:43;100767.97;;;17.82;100.00
64521;BME280;50896;46.714;17.322;2022-10-24T11:08:40;100762.25;;;17.98;100.00
64521;BME280;50896;46.714;17.322;2022-10-24T11:11:21;100755.03;;;17.99;98.72
64521;BME280;50896;46.714;17.322;2022-10-24T11:14:14;100751.75;;;18.03;97.98
64521;BME280;50896;46.714;17.322;2022-10-24T11:16:42;100748.22;;;18.09;98.47
64521;BME280;50896;46.714;17.322;2022-10-24T11:19:20;100740.38;;;18.21;97.70
64521;BME280;50896;46.714;17.322;2022-10-24T11:21:48;100733.13;;;18.15;96.99
64521;BME280;50896;46.714;17.322;2022-10-24T11:24:19;100729.41;;;18.16;96.99
64521;BME280;50896;46.714;17.322;2022-10-24T11:27:02;100727.13;;;18.06;97.83
64521;BME280;50896;46.714;17.322;2022-10-24T11:29:40;100715.31;;;18.01;98.64
64521;BME280;50896;46.714;17.322;2022-10-24T11:32:20;100699.97;;;18.01;99.71
64521;BME280;50896;46.714;17.322;2022-10-24T11:35:04;100699.78;;;17.96;98.89
64521;BME280;50896;46.714;17.322;2022-10-24T11:37:35;100697.91;;;17.97;99.32
64521;BME280;50896;46.714;17.322;2022-10-24T11:40:12;100697.13;;;18.16;98.15
64521;BME280;50896;46.714;17.322;2022-10-24T11:42:55;100697.53;;;18.33;97.72
64521;BME280;50896;46.714;17.322;2022-10-24T11:45:28;100686.34;;;18.50;97.65
64521;BME280;50896;46.714;17.322;2022-10-24T11:48:20;100683.63;;;19.55;92.65
64521;BME280;50896;46.714;17.322;2022-10-24T11:51:08;100679.91;;;20.20;88.48
64521;BME280;50896;46.714;17.322;2022-10-24T11:53:46;100660.88;;;21.51;82.15
64521;BME280;50896;46.714;17.322;2022-10-24T11:59:01;100665.53;;;20.77;82.30
64521;BME280;50896;46.714;17.322;2022-10-24T12:12:30;100648.00;;;18.81;92.42
64521;BME280;50896;46.714;17.322;2022-10-24T12:18:30;100641.44;;;18.23;96.04
64521;BME280;50896;46.714;17.322;2022-10-24T12:20:53;100634.63;;;18.01;97.32
64521;BME280;50896;46.714;17.322;2022-10-24T12:23:23;100618.91;;;18.04;97.25
64521;BME280;50896;46.714;17.322;2022-10-24T12:28:40;100605.22;;;17.92;99.09
64521;BME280;50896;46.714;17.322;2022-10-24T12:33:43;100602.28;;;17.74;100.00
64521;BME280;50896;46.714;17.322;2022-10-24T12:36:10;100585.75;;;17.77;99.85
64521;BME280;50896;46.714;17.322;2022-10-24T12:47:01;100586.75;;;17.69;99.58
64521;BME280;50896;46.714;17.322;2022-10-24T12:49:42;100566.28;;;17.68;99.73
64521;BME280;50896;46.714;17.322;2022-10-24T12:54:56;100562.75;;;17.68;100.00
64521;BME280;50896;46.714;17.322;2022-10-24T12:57:27;100562.97;;;17.59;100.00
64521;BME280;50896;46.714;17.322;2022-10-24T12:59:58;100570.63;;;17.56;100.00
64521;BME280;50896;46.714;17.322;2022-10-24T13:08:11;100551.59;;;17.57;100.00
64521;BME280;50896;46.714;17.322;2022-10-24T13:19:25;100535.66;;;17.49;100.00
64521;BME280;50896;46.714;17.322;2022-10-24T13:21:54;100537.50;;;17.22;100.00
64521;BME280;50896;46.714;17.322;2022-10-24T13:31:52;100541.72;;;16.89;100.00
64521;BME280;50896;46.714;17.322;2022-10-24T13:34:22;100533.44;;;16.91;100.00
64521;BME280;50896;46.714;17.322;2022-10-24T13:36:57;100533.50;;;17.04;100.00
64521;BME280;50896;46.714;17.322;2022-10-24T13:39:29;100521.94;;;17.11;100.00
64521;BME280;50896;46.714;17.322;2022-10-24T13:42:07;100525.88;;;17.01;100.00
64521;BME280;50896;46.714;17.322;2022-10-24T13:44:44;100526.44;;;16.90;100.00
64521;BME280;50896;46.714;17.322;2022-10-24T13:47:24;100518.53;;;16.82;100.00
64521;BME280;50896;46.714;17.322;2022-10-24T13:50:02;100520.38;;;16.74;100.00
64521;BME280;50896;46.714;17.322;2022-10-24T13:52:50;100513.75;;;16.70;100.00
64521;BME280;50896;46.714;17.322;2022-10-24T13:55:29;100511.41;;;16.54;100.00
64521;BME280;50896;46.714;17.322;2022-10-24T13:58:20;100509.13;;;16.51;100.00
64521;BME280;50896;46.714;17.322;2022-10-24T14:00:57;100508.06;;;16.45;100.00
64521;BME280;50896;46.714;17.322;2022-10-24T14:03:27;100506.97;;;16.33;100.00
64521;BME280;50896;46.714;17.322;2022-10-24T14:06:04;100512.91;;;16.28;100.00
64521;BME280;50896;46.714;17.322;2022-10-24T14:08:35;100510.63;;;16.25;100.00
64521;BME280;50896;46.714;17.322;2022-10-24T14:11:07;100508.72;;;16.19;100.00
64521;BME280;50896;46.714;17.322;2022-10-24T14:13:43;100512.19;;;16.13;100.00
64521;BME280;50896;46.714;17.322;2022-10-24T14:16:12;100509.44;;;16.06;100.00
64521;BME280;50896;46.714;17.322;2022-10-24T14:18:40;100515.00;;;15.98;100.00
64521;BME280;50896;46.714;17.322;2022-10-24T14:21:21;100507.09;;;15.89;100.00
64521;BME280;50896;46.714;17.322;2022-10-24T14:23:59;100510.53;;;15.83;100.00
64521;BME280;50896;46.714;17.322;2022-10-24T14:26:27;100515.28;;;15.81;100.00
64521;BME280;50896;46.714;17.322;2022-10-24T14:28:57;100514.06;;;15.84;100.00
64521;BME280;50896;46.714;17.322;2022-10-24T14:31:33;100518.31;;;15.78;100.00
64521;BME280;50896;46.714;17.322;2022-10-24T14:34:03;100519.91;;;15.72;100.00
64521;BME280;50896;46.714;17.322;2022-10-24T14:36:34;100521.75;;;15.72;100.00
64521;BME280;50896;46.714;17.322;2022-10-24T14:39:03;100518.00;;;15.66;100.00